MSC Armonia — H8EW — position and weather

sailwx.info

Track history (hours):
 
Tides and Currents Weather Stations Pressure Air Temp Water Temp Dewpoint Dewpoint Depression Visibility Wind Speed Wind Dir Waves Ship Positions

MSC Armonia

Operator: Mediterranean Shipping Company

Last reported at 2017-Jul-26 09:59 UTC. Time now 2017-Jul-27 02:36 UTC.
Position N 39°21' E 003°42'.

Length 275 m; draft 6.8 m.

Type: Ship. MMSI: 357281000.

Date/timePositionNaut miles runAvg speedWind from/ knotsBaromVisibWave heightAir tempDewpointWater temp
2017-Jul-26 09:59N 39°21' E 003°42'918.3
2017-Jul-26 09:30N 39°17' E 003°32'918.4
2017-Jul-26 09:01N 39°12' E 003°21'918.4
2017-Jul-26 08:30N 39°08' E 003°11'918.2
2017-Jul-26 08:00N 39°04' E 002°60'918.2
2017-Jul-26 07:30N 39°03' E 002°48'918.2
2017-Jul-26 07:00N 39°01' E 002°37'918.1
2017-Jul-26 06:30N 39°00' E 002°25'918.0
2017-Jul-26 06:00N 38°59' E 002°14'918.0
2017-Jul-26 05:30N 38°57' E 002°03'917.8
2017-Jul-26 04:59N 38°56' E 001°51'917.6
2017-Jul-26 04:30N 38°55' E 001°40'10 0.5
2017-Jul-25 05:56N 38°54' E 001°27'3 6.8
2017-Jul-25 05:29N 38°55' E 001°31'510.4
2017-Jul-25 05:00N 38°57' E 001°37'510.4
2017-Jul-25 04:31N 38°60' E 001°42'510.3
2017-Jul-25 04:00N 39°03' E 001°47'510.3
2017-Jul-25 03:31N 39°06' E 001°53'5 9.6
2017-Jul-25 03:00N 39°09' E 001°58'4 9.0
2017-Jul-25 02:30N 39°11' E 002°03'4 8.8
2017-Jul-25 02:01N 39°13' E 002°08'5 9.0
2017-Jul-25 01:30N 39°15' E 002°13'4 8.8
2017-Jul-25 01:00N 39°18' E 002°18'4 8.8
2017-Jul-25 00:30N 39°20' E 002°22'4 8.6
2017-Jul-25 00:00N 39°23' E 002°27'5 9.3
2017-Jul-24 23:30N 39°25' E 002°32'611.4
2017-Jul-24 23:00N 39°29' E 002°37'4 6.7
2017-Jul-24 22:25N 39°33' E 002°38'0 0.0
2017-Jul-24 21:59N 39°33' E 002°38'0 0.0
2017-Jul-24 21:29N 39°33' E 002°38'0 0.0
2017-Jul-24 20:58N 39°33' E 002°38'0 0.0
2017-Jul-24 20:29N 39°33' E 002°38'0 0.0
2017-Jul-24 19:59N 39°33' E 002°38'0 0.0
2017-Jul-24 19:28N 39°33' E 002°38'0 0.0
2017-Jul-24 18:55N 39°33' E 002°38'0 0.0
2017-Jul-24 18:28N 39°33' E 002°38'0 0.0
2017-Jul-24 17:58N 39°33' E 002°38'0 0.0
2017-Jul-24 17:28N 39°33' E 002°38'0 0.0
2017-Jul-24 16:59N 39°33' E 002°38'0 0.0
2017-Jul-24 16:29N 39°33' E 002°38'0 0.0
2017-Jul-24 15:58N 39°33' E 002°38'0 0.0
2017-Jul-24 12:58N 39°33' E 002°38'0 0.0
2017-Jul-24 12:30N 39°33' E 002°38'1 1.0
2017-Jul-24 12:00N 39°33' E 002°39'510.3
2017-Jul-24 11:30N 39°28' E 002°37'511.0
2017-Jul-24 11:00N 39°25' E 002°31'510.0
2017-Jul-24 10:30N 39°27' E 002°24'610.9
2017-Jul-24 10:00N 39°30' E 002°19'612.8
2017-Jul-24 09:30N 39°36' E 002°15'713.9
2017-Jul-24 08:59N 39°42' E 002°19'714.5
2017-Jul-24 08:30N 39°48' E 002°25'714.7
2017-Jul-24 08:01N 39°54' E 002°30'714.4
2017-Jul-24 07:30N 40°01' E 002°35'714.5
2017-Jul-24 07:00N 40°07' E 002°40'714.4
2017-Jul-24 06:31N 40°13' E 002°44'714.5
2017-Jul-24 06:01N 40°19' E 002°49'714.7
2017-Jul-24 05:30N 40°26' E 002°54'814.9
2017-Jul-24 05:00N 40°32' E 002°59'714.9
2017-Jul-24 04:30N 40°38' E 003°05'814.7
2017-Jul-24 03:59N 40°45' E 003°10'714.6
2017-Jul-24 03:30N 40°51' E 003°14'10915.2
2017-Jul-23 20:19N 42°24' E 004°30'515.6
2017-Jul-23 19:59N 42°28' E 004°34'815.5
2017-Jul-23 19:28N 42°35' E 004°40'715.7
2017-Jul-23 19:00N 42°41' E 004°45'816.2
2017-Jul-23 18:30N 42°48' E 004°50'816.1
2017-Jul-23 18:01N 42°55' E 004°56'816.1
2017-Jul-23 17:30N 43°02' E 005°02'815.9
2017-Jul-23 17:00N 43°09' E 005°07'816.0
2017-Jul-23 16:31N 43°16' E 005°13'4 0.4
2017-Jul-23 05:25N 43°19' E 005°17'511.4
2017-Jul-23 05:00N 43°14' E 005°17'7613.3
2017-Jul-22 23:18N 43°11' E 007°01'515.8
2017-Jul-22 23:01N 43°14' E 007°06'1015.9
2017-Jul-22 22:21N 43°19' E 007°18'615.9
2017-Jul-22 22:00N 43°22' E 007°25'815.9
2017-Jul-22 21:30N 43°26' E 007°35'3116.5
2017-Jul-22 19:37N 43°41' E 008°12'216.6
2017-Jul-22 19:31N 43°42' E 008°14'1715.9
2017-Jul-22 18:27N 43°52' E 008°33'716.2
2017-Jul-22 18:00N 43°58' E 008°38'816.4
2017-Jul-22 17:30N 44°05' E 008°44'816.2
2017-Jul-22 17:01N 44°12' E 008°50'816.3
2017-Jul-22 16:30N 44°18' E 008°56'611.2
2017-Jul-22 16:00N 44°24' E 008°55'1 1.3
2017-Jul-22 15:28N 44°25' E 008°55'0 0.0
2017-Jul-22 14:58N 44°25' E 008°55'0 0.0
2017-Jul-22 13:58N 44°25' E 008°55'0 0.0
2017-Jul-22 13:28N 44°25' E 008°55'0 0.0
2017-Jul-22 12:58N 44°25' E 008°55'0 0.0
2017-Jul-22 12:31N 44°25' E 008°55'0 0.0
2017-Jul-22 11:58N 44°25' E 008°55'0 0.0
2017-Jul-22 11:28N 44°25' E 008°55'0 0.0
2017-Jul-22 10:58N 44°25' E 008°55'0 0.0
2017-Jul-22 10:28N 44°25' E 008°55'0 0.0
2017-Jul-22 09:55N 44°25' E 008°55'0 0.0
2017-Jul-22 09:22N 44°25' E 008°55'0 0.0
2017-Jul-22 08:58N 44°25' E 008°55'0 0.0
2017-Jul-22 08:22N 44°25' E 008°55'0 0.0
2017-Jul-22 07:58N 44°25' E 008°55'0 0.0
2017-Jul-22 07:25N 44°25' E 008°55'0 0.0
2017-Jul-22 06:58N 44°25' E 008°55'0 0.0
2017-Jul-22 06:28N 44°25' E 008°55'0 0.0
2017-Jul-22 05:55N 44°25' E 008°55'0 0.0
2017-Jul-22 05:28N 44°25' E 008°55'0 0.0
2017-Jul-22 04:55N 44°25' E 008°55'0 0.6
2017-Jul-22 04:28N 44°24' E 008°55'2 3.3
2017-Jul-22 04:00N 44°23' E 008°56'5 9.6
2017-Jul-22 03:30N 44°19' E 008°60'5 9.8
2017-Jul-22 03:00N 44°14' E 009°02'5 9.1
2017-Jul-22 02:30N 44°10' E 009°04'5 9.0
2017-Jul-22 02:00N 44°06' E 009°06'4 9.0
2017-Jul-22 01:30N 44°02' E 009°08'4 8.9
2017-Jul-22 01:00N 43°57' E 009°10'4 8.9
2017-Jul-22 00:30N 43°53' E 009°12'4 8.8
2017-Jul-22 00:00N 43°49' E 009°14'5 9.1
2017-Jul-21 23:30N 43°45' E 009°16'5 9.1
2017-Jul-21 23:00N 43°40' E 009°18'4 8.1
2017-Jul-21 22:30N 43°37' E 009°20'3 6.9
2017-Jul-21 22:00N 43°34' E 009°22'4 7.6
2017-Jul-21 21:30N 43°33' E 009°27'4 7.6
2017-Jul-21 21:00N 43°33' E 009°33'4 7.5
2017-Jul-21 20:30N 43°33' E 009°38'4 8.4
2017-Jul-21 20:00N 43°33' E 009°44'4 8.5
2017-Jul-21 19:30N 43°33' E 009°49'4 7.8
2017-Jul-21 19:00N 43°32' E 009°55'4 8.0
2017-Jul-21 18:30N 43°31' E 010°00'4 8.4
2017-Jul-21 18:00N 43°31' E 010°06'5 9.0
2017-Jul-21 17:30N 43°31' E 010°12'4 8.9
2017-Jul-21 17:00N 43°33' E 010°18'0 0.0
2017-Jul-21 16:26N 43°33' E 010°18'0 0.0
2017-Jul-21 15:59N 43°33' E 010°18'0 0.0
2017-Jul-21 15:29N 43°33' E 010°18'0 0.0
2017-Jul-21 14:59N 43°33' E 010°18'0 0.0
2017-Jul-21 14:26N 43°33' E 010°18'0 0.0
2017-Jul-21 13:56N 43°33' E 010°18'0 0.0
2017-Jul-21 13:29N 43°33' E 010°18'0 0.0
2017-Jul-21 12:59N 43°33' E 010°18'0 0.0
2017-Jul-21 12:29N 43°33' E 010°18'0 0.0
2017-Jul-21 11:59N 43°33' E 010°18'0 0.0
2017-Jul-21 11:29N 43°33' E 010°18'0 0.0
2017-Jul-21 10:56N 43°33' E 010°18'0 0.0
2017-Jul-21 10:29N 43°33' E 010°18'0 0.0
2017-Jul-21 09:59N 43°33' E 010°18'0 0.0
2017-Jul-21 09:29N 43°33' E 010°18'0 0.0
2017-Jul-21 08:56N 43°33' E 010°18'0 0.0
2017-Jul-21 08:29N 43°33' E 010°18'0 0.0
2017-Jul-21 07:53N 43°33' E 010°18'0 0.0
2017-Jul-21 07:29N 43°33' E 010°18'0 0.0
2017-Jul-21 06:59N 43°33' E 010°18'0 0.0
2017-Jul-21 06:29N 43°33' E 010°18'0 0.0
2017-Jul-21 05:56N 43°33' E 010°18'0 0.0
2017-Jul-21 05:29N 43°33' E 010°18'1 1.3
2017-Jul-21 05:01N 43°33' E 010°17'510.4
2017-Jul-21 04:30N 43°28' E 010°13'612.4
2017-Jul-21 04:00N 43°23' E 010°10'713.0
2017-Jul-21 03:30N 43°17' E 010°07'712.8
2017-Jul-21 02:59N 43°10' E 010°04'2812.9
2017-Jul-21 00:47N 42°43' E 009°55'413.3
2017-Jul-21 00:28N 42°38' E 009°55'613.3
2017-Jul-21 00:00N 42°32' E 009°54'1113.4
2017-Jul-20 23:13N 42°22' E 009°53'313.6
2017-Jul-20 22:59N 42°19' E 009°52'1613.7
2017-Jul-20 21:48N 42°02' E 009°51'4014.3
2017-Jul-20 18:59N 41°22' E 009°45'2515.3
2017-Jul-20 17:23N 40°58' E 009°42'2 0.2
2017-Jul-20 05:22N 40°57' E 009°40'513.0
2017-Jul-20 05:00N 41°02' E 009°43'6313.3
2017-Jul-20 00:19N 41°13' E 008°22'515.3
2017-Jul-20 00:00N 41°12' E 008°16'815.4
2017-Jul-19 23:30N 41°09' E 008°07'815.9
2017-Jul-19 22:59N 41°05' E 007°57'816.4
2017-Jul-19 22:31N 41°01' E 007°48'816.4
2017-Jul-19 22:00N 40°57' E 007°38'816.3
2017-Jul-19 21:30N 40°53' E 007°29'816.3
2017-Jul-19 21:01N 40°49' E 007°19'816.2
2017-Jul-19 20:31N 40°46' E 007°10'1018.2
2017-Jul-19 19:57N 40°41' E 006°58'818.6
2017-Jul-19 19:30N 40°37' E 006°48'918.8
2017-Jul-19 19:00N 40°33' E 006°37'918.7
2017-Jul-19 18:30N 40°29' E 006°26'918.1
2017-Jul-19 18:00N 40°24' E 006°16'918.0
2017-Jul-19 17:30N 40°20' E 006°05'918.1
2017-Jul-19 17:00N 40°15' E 005°55'917.9
2017-Jul-19 16:30N 40°11' E 005°45'917.7
2017-Jul-19 15:58N 40°07' E 005°33'1117.7
2017-Jul-19 15:19N 40°02' E 005°20'617.5
2017-Jul-19 15:00N 39°59' E 005°14'917.4
2017-Jul-19 14:28N 39°55' E 005°03'817.4
2017-Jul-19 14:00N 39°51' E 004°54'917.5
2017-Jul-19 13:30N 39°47' E 004°44'1017.5
2017-Jul-19 12:56N 39°42' E 004°32'1217.5
2017-Jul-19 12:13N 39°36' E 004°18'417.6
2017-Jul-19 12:00N 39°34' E 004°14'817.4
2017-Jul-19 11:30N 39°30' E 004°04'917.4
2017-Jul-19 10:59N 39°26' E 003°54'917.4
2017-Jul-19 10:27N 39°22' E 003°43'817.5
2017-Jul-19 10:01N 39°18' E 003°34'917.4
2017-Jul-19 09:30N 39°14' E 003°24'917.4
2017-Jul-19 09:00N 39°10' E 003°14'917.4
2017-Jul-19 08:30N 39°06' E 003°04'917.1
2017-Jul-19 08:00N 39°03' E 002°54'917.1
2017-Jul-19 07:30N 39°02' E 002°43'917.4
2017-Jul-19 07:00N 39°01' E 002°32'917.6
2017-Jul-19 06:30N 38°60' E 002°21'917.9
2017-Jul-19 06:01N 38°58' E 002°09'917.9
2017-Jul-19 05:31N 38°57' E 001°58'917.7
2017-Jul-19 05:00N 38°55' E 001°47'917.7
2017-Jul-19 04:30N 38°54' E 001°35'7 0.3
2017-Jul-18 05:40N 38°54' E 001°27'1 7.6
2017-Jul-18 05:30N 38°54' E 001°28'612.3
2017-Jul-18 04:59N 38°57' E 001°36'612.4
2017-Jul-18 04:30N 38°60' E 001°42'612.2
2017-Jul-18 04:00N 39°03' E 001°49'510.5
2017-Jul-18 03:30N 39°06' E 001°55'5 9.0
2017-Jul-18 02:57N 39°08' E 002°01'4 9.2
2017-Jul-18 02:30N 39°10' E 002°05'5 9.1
2017-Jul-18 02:00N 39°13' E 002°10'5 9.2
2017-Jul-18 01:30N 39°16' E 002°15'4 9.0
2017-Jul-18 01:00N 39°19' E 002°19'5 9.2
2017-Jul-18 00:30N 39°21' E 002°24'5 9.3
2017-Jul-18 00:00N 39°24' E 002°29'5 9.4
2017-Jul-17 23:30N 39°27' E 002°34'5 9.6
2017-Jul-17 23:00N 39°30' E 002°38'3 5.7
2017-Jul-17 22:30N 39°33' E 002°38'0 0.0
2017-Jul-17 22:00N 39°33' E 002°38'0 0.0
2017-Jul-17 21:30N 39°33' E 002°38'0 0.0
2017-Jul-17 21:00N 39°33' E 002°38'0 0.0
2017-Jul-17 20:30N 39°33' E 002°38'0 0.0
2017-Jul-17 20:00N 39°33' E 002°38'0 0.0
2017-Jul-17 19:30N 39°33' E 002°38'0 0.0
2017-Jul-17 19:00N 39°33' E 002°38'0 0.0
2017-Jul-17 18:30N 39°33' E 002°38'0 0.0
2017-Jul-17 18:00N 39°33' E 002°38'0 0.0
2017-Jul-17 17:30N 39°33' E 002°38'0 0.0
2017-Jul-17 17:00N 39°33' E 002°38'0 0.0
2017-Jul-17 16:30N 39°33' E 002°38'0 0.0
2017-Jul-17 16:00N 39°33' E 002°38'0 0.0
2017-Jul-17 15:30N 39°33' E 002°38'0 0.0
2017-Jul-17 15:00N 39°33' E 002°38'0 0.0
2017-Jul-17 14:30N 39°33' E 002°38'0 0.0
2017-Jul-17 14:00N 39°33' E 002°38'0 0.0
2017-Jul-17 13:24N 39°33' E 002°38'0 0.0
2017-Jul-17 13:00N 39°33' E 002°38'0 0.0
2017-Jul-17 12:30N 39°33' E 002°38'0 0.0
2017-Jul-17 12:00N 39°33' E 002°38'0 0.2
2017-Jul-17 11:30N 39°33' E 002°38'3 5.6
2017-Jul-17 11:00N 39°30' E 002°38'612.4
2017-Jul-17 10:30N 39°26' E 002°32'613.0
2017-Jul-17 10:00N 39°27' E 002°24'813.7
2017-Jul-17 09:27N 39°32' E 002°17'612.6
2017-Jul-17 09:00N 39°38' E 002°16'814.9
2017-Jul-17 08:27N 39°45' E 002°22'715.0
2017-Jul-17 08:00N 39°50' E 002°27'612.6
2017-Jul-17 07:30N 39°56' E 002°31'714.9
2017-Jul-17 07:00N 40°02' E 002°36'815.7
2017-Jul-17 06:30N 40°09' E 002°41'815.4
2017-Jul-17 06:00N 40°16' E 002°46'815.4
2017-Jul-17 05:30N 40°22' E 002°51'815.8
2017-Jul-17 05:00N 40°29' E 002°57'816.2
2017-Jul-17 04:30N 40°36' E 003°02'816.1
2017-Jul-17 04:00N 40°43' E 003°08'815.8
2017-Jul-17 03:30N 40°50' E 003°14'815.7
2017-Jul-17 03:00N 40°56' E 003°19'1415.5
2017-Jul-17 02:07N 41°08' E 003°29'215.0
2017-Jul-17 02:00N 41°09' E 003°30'714.9
2017-Jul-17 01:30N 41°16' E 003°35'815.6
2017-Jul-17 01:00N 41°22' E 003°40'2115.3
2017-Jul-16 23:39N 41°40' E 003°54'515.3
2017-Jul-16 23:20N 41°44' E 003°58'715.4
2017-Jul-16 22:54N 41°50' E 004°03'715.0
2017-Jul-16 22:25N 41°56' E 004°08'615.1
2017-Jul-16 22:00N 42°01' E 004°12'1715.3
2017-Jul-16 20:55N 42°16' E 004°23'2816.4
2017-Jul-16 19:11N 42°40' E 004°43'416.9
2017-Jul-16 18:56N 42°44' E 004°46'2816.4
2017-Jul-16 17:11N 43°08' E 005°06'516.3
2017-Jul-16 16:54N 43°12' E 005°10'  
Track history (hours):
 
Tides and Currents Weather Stations Pressure Air Temp Water Temp Dewpoint Dewpoint Depression Visibility Wind Speed Wind Dir Waves Ship Positions

MSC Armonia

Operator: Mediterranean Shipping Company

Last reported at 2017-Jul-26 09:59 UTC. Time now 2017-Jul-27 02:36 UTC.
Position N 39°21' E 003°42'.

Length 275 m; draft 6.8 m.

Type: Ship. MMSI: 357281000.

Date/timePositionNaut miles runAvg speedWind from/ knotsBaromVisibWave heightAir tempDewpointWater temp
2017-Jul-26 09:59N 39°21' E 003°42'918.3
2017-Jul-26 09:30N 39°17' E 003°32'918.4
2017-Jul-26 09:01N 39°12' E 003°21'918.4
2017-Jul-26 08:30N 39°08' E 003°11'918.2
2017-Jul-26 08:00N 39°04' E 002°60'918.2
2017-Jul-26 07:30N 39°03' E 002°48'918.2
2017-Jul-26 07:00N 39°01' E 002°37'918.1
2017-Jul-26 06:30N 39°00' E 002°25'918.0
2017-Jul-26 06:00N 38°59' E 002°14'918.0
2017-Jul-26 05:30N 38°57' E 002°03'917.8
2017-Jul-26 04:59N 38°56' E 001°51'917.6
2017-Jul-26 04:30N 38°55' E 001°40'10 0.5
2017-Jul-25 05:56N 38°54' E 001°27'3 6.8
2017-Jul-25 05:29N 38°55' E 001°31'510.4
2017-Jul-25 05:00N 38°57' E 001°37'510.4
2017-Jul-25 04:31N 38°60' E 001°42'510.3
2017-Jul-25 04:00N 39°03' E 001°47'510.3
2017-Jul-25 03:31N 39°06' E 001°53'5 9.6
2017-Jul-25 03:00N 39°09' E 001°58'4 9.0
2017-Jul-25 02:30N 39°11' E 002°03'4 8.8
2017-Jul-25 02:01N 39°13' E 002°08'5 9.0
2017-Jul-25 01:30N 39°15' E 002°13'4 8.8
2017-Jul-25 01:00N 39°18' E 002°18'4 8.8
2017-Jul-25 00:30N 39°20' E 002°22'4 8.6
2017-Jul-25 00:00N 39°23' E 002°27'5 9.3
2017-Jul-24 23:30N 39°25' E 002°32'611.4
2017-Jul-24 23:00N 39°29' E 002°37'4 6.7
2017-Jul-24 22:25N 39°33' E 002°38'0 0.0
2017-Jul-24 21:59N 39°33' E 002°38'0 0.0
2017-Jul-24 21:29N 39°33' E 002°38'0 0.0
2017-Jul-24 20:58N 39°33' E 002°38'0 0.0
2017-Jul-24 20:29N 39°33' E 002°38'0 0.0
2017-Jul-24 19:59N 39°33' E 002°38'0 0.0
2017-Jul-24 19:28N 39°33' E 002°38'0 0.0
2017-Jul-24 18:55N 39°33' E 002°38'0 0.0
2017-Jul-24 18:28N 39°33' E 002°38'0 0.0
2017-Jul-24 17:58N 39°33' E 002°38'0 0.0
2017-Jul-24 17:28N 39°33' E 002°38'0 0.0
2017-Jul-24 16:59N 39°33' E 002°38'0 0.0
2017-Jul-24 16:29N 39°33' E 002°38'0 0.0
2017-Jul-24 15:58N 39°33' E 002°38'0 0.0
2017-Jul-24 12:58N 39°33' E 002°38'0 0.0
2017-Jul-24 12:30N 39°33' E 002°38'1 1.0
2017-Jul-24 12:00N 39°33' E 002°39'510.3
2017-Jul-24 11:30N 39°28' E 002°37'511.0
2017-Jul-24 11:00N 39°25' E 002°31'510.0
2017-Jul-24 10:30N 39°27' E 002°24'610.9
2017-Jul-24 10:00N 39°30' E 002°19'612.8
2017-Jul-24 09:30N 39°36' E 002°15'713.9
2017-Jul-24 08:59N 39°42' E 002°19'714.5
2017-Jul-24 08:30N 39°48' E 002°25'714.7
2017-Jul-24 08:01N 39°54' E 002°30'714.4
2017-Jul-24 07:30N 40°01' E 002°35'714.5
2017-Jul-24 07:00N 40°07' E 002°40'714.4
2017-Jul-24 06:31N 40°13' E 002°44'714.5
2017-Jul-24 06:01N 40°19' E 002°49'714.7
2017-Jul-24 05:30N 40°26' E 002°54'814.9
2017-Jul-24 05:00N 40°32' E 002°59'714.9
2017-Jul-24 04:30N 40°38' E 003°05'814.7
2017-Jul-24 03:59N 40°45' E 003°10'714.6
2017-Jul-24 03:30N 40°51' E 003°14'10915.2
2017-Jul-23 20:19N 42°24' E 004°30'515.6
2017-Jul-23 19:59N 42°28' E 004°34'815.5
2017-Jul-23 19:28N 42°35' E 004°40'715.7
2017-Jul-23 19:00N 42°41' E 004°45'816.2
2017-Jul-23 18:30N 42°48' E 004°50'816.1
2017-Jul-23 18:01N 42°55' E 004°56'816.1
2017-Jul-23 17:30N 43°02' E 005°02'815.9
2017-Jul-23 17:00N 43°09' E 005°07'816.0
2017-Jul-23 16:31N 43°16' E 005°13'4 0.4
2017-Jul-23 05:25N 43°19' E 005°17'511.4
2017-Jul-23 05:00N 43°14' E 005°17'7613.3
2017-Jul-22 23:18N 43°11' E 007°01'515.8
2017-Jul-22 23:01N 43°14' E 007°06'1015.9
2017-Jul-22 22:21N 43°19' E 007°18'615.9
2017-Jul-22 22:00N 43°22' E 007°25'815.9
2017-Jul-22 21:30N 43°26' E 007°35'3116.5
2017-Jul-22 19:37N 43°41' E 008°12'216.6
2017-Jul-22 19:31N 43°42' E 008°14'1715.9
2017-Jul-22 18:27N 43°52' E 008°33'716.2
2017-Jul-22 18:00N 43°58' E 008°38'816.4
2017-Jul-22 17:30N 44°05' E 008°44'816.2
2017-Jul-22 17:01N 44°12' E 008°50'816.3
2017-Jul-22 16:30N 44°18' E 008°56'611.2
2017-Jul-22 16:00N 44°24' E 008°55'1 1.3
2017-Jul-22 15:28N 44°25' E 008°55'0 0.0
2017-Jul-22 14:58N 44°25' E 008°55'0 0.0
2017-Jul-22 13:58N 44°25' E 008°55'0 0.0
2017-Jul-22 13:28N 44°25' E 008°55'0 0.0
2017-Jul-22 12:58N 44°25' E 008°55'0 0.0
2017-Jul-22 12:31N 44°25' E 008°55'0 0.0
2017-Jul-22 11:58N 44°25' E 008°55'0 0.0
2017-Jul-22 11:28N 44°25' E 008°55'0 0.0
2017-Jul-22 10:58N 44°25' E 008°55'0 0.0
2017-Jul-22 10:28N 44°25' E 008°55'0 0.0
2017-Jul-22 09:55N 44°25' E 008°55'0 0.0
2017-Jul-22 09:22N 44°25' E 008°55'0 0.0
2017-Jul-22 08:58N 44°25' E 008°55'0 0.0
2017-Jul-22 08:22N 44°25' E 008°55'0 0.0
2017-Jul-22 07:58N 44°25' E 008°55'0 0.0
2017-Jul-22 07:25N 44°25' E 008°55'0 0.0
2017-Jul-22 06:58N 44°25' E 008°55'0 0.0
2017-Jul-22 06:28N 44°25' E 008°55'0 0.0
2017-Jul-22 05:55N 44°25' E 008°55'0 0.0
2017-Jul-22 05:28N 44°25' E 008°55'0 0.0
2017-Jul-22 04:55N 44°25' E 008°55'0 0.6
2017-Jul-22 04:28N 44°24' E 008°55'2 3.3
2017-Jul-22 04:00N 44°23' E 008°56'5 9.6
2017-Jul-22 03:30N 44°19' E 008°60'5 9.8
2017-Jul-22 03:00N 44°14' E 009°02'5 9.1
2017-Jul-22 02:30N 44°10' E 009°04'5 9.0
2017-Jul-22 02:00N 44°06' E 009°06'4 9.0
2017-Jul-22 01:30N 44°02' E 009°08'4 8.9
2017-Jul-22 01:00N 43°57' E 009°10'4 8.9
2017-Jul-22 00:30N 43°53' E 009°12'4 8.8
2017-Jul-22 00:00N 43°49' E 009°14'5 9.1
2017-Jul-21 23:30N 43°45' E 009°16'5 9.1
2017-Jul-21 23:00N 43°40' E 009°18'4 8.1
2017-Jul-21 22:30N 43°37' E 009°20'3 6.9
2017-Jul-21 22:00N 43°34' E 009°22'4 7.6
2017-Jul-21 21:30N 43°33' E 009°27'4 7.6
2017-Jul-21 21:00N 43°33' E 009°33'4 7.5
2017-Jul-21 20:30N 43°33' E 009°38'4 8.4
2017-Jul-21 20:00N 43°33' E 009°44'4 8.5
2017-Jul-21 19:30N 43°33' E 009°49'4 7.8
2017-Jul-21 19:00N 43°32' E 009°55'4 8.0
2017-Jul-21 18:30N 43°31' E 010°00'4 8.4
2017-Jul-21 18:00N 43°31' E 010°06'5 9.0
2017-Jul-21 17:30N 43°31' E 010°12'4 8.9
2017-Jul-21 17:00N 43°33' E 010°18'0 0.0
2017-Jul-21 16:26N 43°33' E 010°18'0 0.0
2017-Jul-21 15:59N 43°33' E 010°18'0 0.0
2017-Jul-21 15:29N 43°33' E 010°18'0 0.0
2017-Jul-21 14:59N 43°33' E 010°18'0 0.0
2017-Jul-21 14:26N 43°33' E 010°18'0 0.0
2017-Jul-21 13:56N 43°33' E 010°18'0 0.0
2017-Jul-21 13:29N 43°33' E 010°18'0 0.0
2017-Jul-21 12:59N 43°33' E 010°18'0 0.0
2017-Jul-21 12:29N 43°33' E 010°18'0 0.0
2017-Jul-21 11:59N 43°33' E 010°18'0 0.0
2017-Jul-21 11:29N 43°33' E 010°18'0 0.0
2017-Jul-21 10:56N 43°33' E 010°18'0 0.0
2017-Jul-21 10:29N 43°33' E 010°18'0 0.0
2017-Jul-21 09:59N 43°33' E 010°18'0 0.0
2017-Jul-21 09:29N 43°33' E 010°18'0 0.0
2017-Jul-21 08:56N 43°33' E 010°18'0 0.0
2017-Jul-21 08:29N 43°33' E 010°18'0 0.0
2017-Jul-21 07:53N 43°33' E 010°18'0 0.0
2017-Jul-21 07:29N 43°33' E 010°18'0 0.0
2017-Jul-21 06:59N 43°33' E 010°18'0 0.0
2017-Jul-21 06:29N 43°33' E 010°18'0 0.0
2017-Jul-21 05:56N 43°33' E 010°18'0 0.0
2017-Jul-21 05:29N 43°33' E 010°18'1 1.3
2017-Jul-21 05:01N 43°33' E 010°17'510.4
2017-Jul-21 04:30N 43°28' E 010°13'612.4
2017-Jul-21 04:00N 43°23' E 010°10'713.0
2017-Jul-21 03:30N 43°17' E 010°07'712.8
2017-Jul-21 02:59N 43°10' E 010°04'2812.9
2017-Jul-21 00:47N 42°43' E 009°55'413.3
2017-Jul-21 00:28N 42°38' E 009°55'613.3
2017-Jul-21 00:00N 42°32' E 009°54'1113.4
2017-Jul-20 23:13N 42°22' E 009°53'313.6
2017-Jul-20 22:59N 42°19' E 009°52'1613.7
2017-Jul-20 21:48N 42°02' E 009°51'4014.3
2017-Jul-20 18:59N 41°22' E 009°45'2515.3
2017-Jul-20 17:23N 40°58' E 009°42'2 0.2
2017-Jul-20 05:22N 40°57' E 009°40'513.0
2017-Jul-20 05:00N 41°02' E 009°43'6313.3
2017-Jul-20 00:19N 41°13' E 008°22'515.3
2017-Jul-20 00:00N 41°12' E 008°16'815.4
2017-Jul-19 23:30N 41°09' E 008°07'815.9
2017-Jul-19 22:59N 41°05' E 007°57'816.4
2017-Jul-19 22:31N 41°01' E 007°48'816.4
2017-Jul-19 22:00N 40°57' E 007°38'816.3
2017-Jul-19 21:30N 40°53' E 007°29'816.3
2017-Jul-19 21:01N 40°49' E 007°19'816.2
2017-Jul-19 20:31N 40°46' E 007°10'1018.2
2017-Jul-19 19:57N 40°41' E 006°58'818.6
2017-Jul-19 19:30N 40°37' E 006°48'918.8
2017-Jul-19 19:00N 40°33' E 006°37'918.7
2017-Jul-19 18:30N 40°29' E 006°26'918.1
2017-Jul-19 18:00N 40°24' E 006°16'918.0
2017-Jul-19 17:30N 40°20' E 006°05'918.1
2017-Jul-19 17:00N 40°15' E 005°55'917.9
2017-Jul-19 16:30N 40°11' E 005°45'917.7
2017-Jul-19 15:58N 40°07' E 005°33'1117.7
2017-Jul-19 15:19N 40°02' E 005°20'617.5
2017-Jul-19 15:00N 39°59' E 005°14'917.4
2017-Jul-19 14:28N 39°55' E 005°03'817.4
2017-Jul-19 14:00N 39°51' E 004°54'917.5
2017-Jul-19 13:30N 39°47' E 004°44'1017.5
2017-Jul-19 12:56N 39°42' E 004°32'1217.5
2017-Jul-19 12:13N 39°36' E 004°18'417.6
2017-Jul-19 12:00N 39°34' E 004°14'817.4
2017-Jul-19 11:30N 39°30' E 004°04'917.4
2017-Jul-19 10:59N 39°26' E 003°54'917.4
2017-Jul-19 10:27N 39°22' E 003°43'817.5
2017-Jul-19 10:01N 39°18' E 003°34'917.4
2017-Jul-19 09:30N 39°14' E 003°24'917.4
2017-Jul-19 09:00N 39°10' E 003°14'917.4
2017-Jul-19 08:30N 39°06' E 003°04'917.1
2017-Jul-19 08:00N 39°03' E 002°54'917.1
2017-Jul-19 07:30N 39°02' E 002°43'917.4
2017-Jul-19 07:00N 39°01' E 002°32'917.6
2017-Jul-19 06:30N 38°60' E 002°21'917.9
2017-Jul-19 06:01N 38°58' E 002°09'917.9
2017-Jul-19 05:31N 38°57' E 001°58'917.7
2017-Jul-19 05:00N 38°55' E 001°47'917.7
2017-Jul-19 04:30N 38°54' E 001°35'7 0.3
2017-Jul-18 05:40N 38°54' E 001°27'1 7.6
2017-Jul-18 05:30N 38°54' E 001°28'612.3
2017-Jul-18 04:59N 38°57' E 001°36'612.4
2017-Jul-18 04:30N 38°60' E 001°42'612.2
2017-Jul-18 04:00N 39°03' E 001°49'510.5
2017-Jul-18 03:30N 39°06' E 001°55'5 9.0
2017-Jul-18 02:57N 39°08' E 002°01'4 9.2
2017-Jul-18 02:30N 39°10' E 002°05'5 9.1
2017-Jul-18 02:00N 39°13' E 002°10'5 9.2
2017-Jul-18 01:30N 39°16' E 002°15'4 9.0
2017-Jul-18 01:00N 39°19' E 002°19'5 9.2
2017-Jul-18 00:30N 39°21' E 002°24'5 9.3
2017-Jul-18 00:00N 39°24' E 002°29'5 9.4
2017-Jul-17 23:30N 39°27' E 002°34'5 9.6
2017-Jul-17 23:00N 39°30' E 002°38'3 5.7
2017-Jul-17 22:30N 39°33' E 002°38'0 0.0
2017-Jul-17 22:00N 39°33' E 002°38'0 0.0
2017-Jul-17 21:30N 39°33' E 002°38'0 0.0
2017-Jul-17 21:00N 39°33' E 002°38'0 0.0
2017-Jul-17 20:30N 39°33' E 002°38'0 0.0
2017-Jul-17 20:00N 39°33' E 002°38'0 0.0
2017-Jul-17 19:30N 39°33' E 002°38'0 0.0
2017-Jul-17 19:00N 39°33' E 002°38'0 0.0
2017-Jul-17 18:30N 39°33' E 002°38'0 0.0
2017-Jul-17 18:00N 39°33' E 002°38'0 0.0
2017-Jul-17 17:30N 39°33' E 002°38'0 0.0
2017-Jul-17 17:00N 39°33' E 002°38'0 0.0
2017-Jul-17 16:30N 39°33' E 002°38'0 0.0
2017-Jul-17 16:00N 39°33' E 002°38'0 0.0
2017-Jul-17 15:30N 39°33' E 002°38'0 0.0
2017-Jul-17 15:00N 39°33' E 002°38'0 0.0
2017-Jul-17 14:30N 39°33' E 002°38'0 0.0
2017-Jul-17 14:00N 39°33' E 002°38'0 0.0
2017-Jul-17 13:24N 39°33' E 002°38'0 0.0
2017-Jul-17 13:00N 39°33' E 002°38'0 0.0
2017-Jul-17 12:30N 39°33' E 002°38'0 0.0
2017-Jul-17 12:00N 39°33' E 002°38'0 0.2
2017-Jul-17 11:30N 39°33' E 002°38'3 5.6
2017-Jul-17 11:00N 39°30' E 002°38'612.4
2017-Jul-17 10:30N 39°26' E 002°32'613.0
2017-Jul-17 10:00N 39°27' E 002°24'813.7
2017-Jul-17 09:27N 39°32' E 002°17'612.6
2017-Jul-17 09:00N 39°38' E 002°16'814.9
2017-Jul-17 08:27N 39°45' E 002°22'715.0
2017-Jul-17 08:00N 39°50' E 002°27'612.6
2017-Jul-17 07:30N 39°56' E 002°31'714.9
2017-Jul-17 07:00N 40°02' E 002°36'815.7
2017-Jul-17 06:30N 40°09' E 002°41'815.4
2017-Jul-17 06:00N 40°16' E 002°46'815.4
2017-Jul-17 05:30N 40°22' E 002°51'815.8
2017-Jul-17 05:00N 40°29' E 002°57'816.2
2017-Jul-17 04:30N 40°36' E 003°02'816.1
2017-Jul-17 04:00N 40°43' E 003°08'815.8
2017-Jul-17 03:30N 40°50' E 003°14'815.7
2017-Jul-17 03:00N 40°56' E 003°19'1415.5
2017-Jul-17 02:07N 41°08' E 003°29'215.0
2017-Jul-17 02:00N 41°09' E 003°30'714.9
2017-Jul-17 01:30N 41°16' E 003°35'815.6
2017-Jul-17 01:00N 41°22' E 003°40'2115.3
2017-Jul-16 23:39N 41°40' E 003°54'515.3
2017-Jul-16 23:20N 41°44' E 003°58'715.4
2017-Jul-16 22:54N 41°50' E 004°03'715.0
2017-Jul-16 22:25N 41°56' E 004°08'615.1
2017-Jul-16 22:00N 42°01' E 004°12'1715.3
2017-Jul-16 20:55N 42°16' E 004°23'2816.4
2017-Jul-16 19:11N 42°40' E 004°43'416.9
2017-Jul-16 18:56N 42°44' E 004°46'2816.4
2017-Jul-16 17:11N 43°08' E 005°06'516.3
2017-Jul-16 16:54N 43°12' E 005°10'  

Dump ship's entire track history